Time;durP1;ratioP1;P1;durP2;ratioP2;P2;SDS_P1;SDS_P2;PMS_P1;PMS_P2;Temp;Humidity;BMP_temperature;BMP_pressure;BME280_temperature;BME280_humidity;BME280_pressure;Samples;Min_cycle;Max_cycle;Signal;HPM_P1;HPM_P2
2023/09/02 07:23:27;;;;;;;11.23;10.05;;;;;;;-145.79;100.00;77392.13;5319528;27;20535;-85
2023/09/02 07:26:00;;;;;;;14.18;12.63;;;;;;;-145.79;100.00;77394.22;5308450;28;20035;-85
2023/09/02 07:28:32;;;;;;;14.18;11.73;;;;;;;-145.79;100.00;77385.75;5302798;28;20471;-82
2023/09/02 07:31:06;;;;;;;14.20;13.00;;;;;;;-145.79;100.00;77385.75;5300097;28;20028;-82
2023/09/02 07:33:38;;;;;;;13.07;11.82;;;;;;;-145.79;100.00;77379.41;5301924;28;20086;-81
2023/09/02 07:36:13;;;;;;;17.80;11.32;;;;;;;-145.79;100.00;77373.03;5299993;28;20048;-79
2023/09/02 07:38:44;;;;;;;14.40;10.85;;;;;;;-145.79;100.00;77373.03;5300992;28;20131;-77
2023/09/02 07:41:16;;;;;;;12.80;11.57;;;;;;;-145.79;100.00;77370.91;5309550;28;20495;-78
2023/09/02 07:43:47;;;;;;;12.35;11.18;;;;;;;-145.79;100.00;77362.44;5304189;28;20032;-77
2023/09/02 07:46:18;;;;;;;12.13;11.02;;;;;;;-145.79;100.00;77364.56;5300404;28;20032;-77
2023/09/02 07:48:50;;;;;;;11.63;10.40;;;;;;;-145.79;100.00;77356.06;5321383;28;20478;-78
2023/09/02 07:51:25;;;;;;;13.30;12.07;;;;;;;-145.79;100.00;77356.06;5320688;28;20020;-79
2023/09/02 07:53:56;;;;;;;12.13;10.90;;;;;;;-145.79;100.00;77351.84;5311612;28;20175;-77
2023/09/02 07:56:28;;;;;;;11.65;10.55;;;;;;;-145.79;100.00;77353.97;5293491;28;20047;-78
2023/09/02 07:59:01;;;;;;;16.25;14.85;;;;;;;-145.79;100.00;77347.59;5304925;28;20439;-81
2023/09/02 08:01:33;;;;;;;18.27;16.67;;;;;;;-145.79;100.00;77337.00;5311904;28;20040;-79
2023/09/02 08:04:04;;;;;;;12.40;11.35;;;;;;;-145.79;100.00;77339.13;5305350;28;20020;-77
2023/09/02 08:06:38;;;;;;;12.02;10.93;;;;;;;-145.79;100.00;77332.75;5300208;28;20556;-80
2023/09/02 08:09:10;;;;;;;11.77;10.50;;;;;;;-145.79;100.00;77334.88;5306138;28;20099;-80
2023/09/02 08:11:43;;;;;;;12.95;11.80;;;;;;;-145.79;100.00;77326.41;5302488;28;20248;-81
2023/09/02 08:14:15;;;;;;;12.40;11.30;;;;;;;-145.79;100.00;77328.53;5303188;28;20050;-80
2023/09/02 08:16:46;;;;;;;14.38;13.10;;;;;;;-145.79;100.00;77334.88;5309216;28;20107;-83
2023/09/02 08:19:24;;;;;;;13.63;12.43;;;;;;;-145.79;100.00;77334.88;5306246;28;20089;-81
2023/09/02 08:21:55;;;;;;;15.65;14.35;;;;;;;-145.79;100.00;77328.53;5309390;28;20071;-82
2023/09/02 08:24:26;;;;;;;14.60;13.50;;;;;;;-145.79;100.00;77334.88;5305790;28;20106;-81
2023/09/02 08:26:58;;;;;;;14.93;13.52;;;;;;;-145.79;100.00;77322.16;5292271;28;20017;-80
2023/09/02 08:29:29;;;;;;;13.93;12.60;;;;;;;-145.79;100.00;77313.69;5293373;28;20039;-81
2023/09/02 08:32:01;;;;;;;15.20;13.90;;;;;;;-145.79;100.00;77313.69;5299325;28;20021;-73
2023/09/02 08:34:33;;;;;;;15.52;14.32;;;;;;;-145.79;100.00;77317.94;5266783;28;20033;-73
2023/09/02 08:37:05;;;;;;;18.40;16.90;;;;;;;-145.79;100.00;77326.41;5293215;28;20492;-74
2023/09/02 08:39:36;;;;;;;18.42;16.90;;;;;;;-145.79;100.00;77334.88;5306473;28;20525;-82
2023/09/02 08:42:08;;;;;;;16.60;15.00;;;;;;;-145.79;100.00;77328.53;5288202;28;20028;-82
2023/09/02 08:44:40;;;;;;;17.38;15.77;;;;;;;-145.79;100.00;77324.28;5307998;28;20020;-83
2023/09/02 08:47:12;;;;;;;18.25;16.65;;;;;;;-145.79;100.00;77324.28;5294029;28;20029;-80
2023/09/02 08:49:46;;;;;;;17.58;15.85;;;;;;;-145.79;100.00;77328.53;5266038;28;20029;-82
2023/09/02 08:52:18;;;;;;;19.15;17.65;;;;;;;-145.79;100.00;77322.16;5264709;28;20025;-78
2023/09/02 08:54:50;;;;;;;18.75;17.15;;;;;;;-145.79;100.00;77322.16;5274470;28;20077;-78
2023/09/02 08:57:22;;;;;;;20.35;18.30;;;;;;;-145.79;100.00;77317.94;5288127;28;20479;-79
2023/09/02 08:59:53;;;;;;;17.20;15.80;;;;;;;-145.79;100.00;77307.31;5285321;28;20078;-79
2023/09/02 09:02:29;;;;;;;19.45;17.80;;;;;;;-145.79;100.00;77307.31;5284834;28;20351;-81
2023/09/02 09:05:02;;;;;;;19.35;17.85;;;;;;;-145.79;100.00;77300.97;5285177;28;20016;-80
2023/09/02 09:07:36;;;;;;;21.52;19.52;;;;;;;-145.79;100.00;77307.31;5285020;28;20382;-80
2023/09/02 09:10:10;;;;;;;21.30;19.45;;;;;;;-145.79;100.00;77313.69;5290968;28;20024;-79
2023/09/02 09:12:43;;;;;;;19.73;18.03;;;;;;;-145.79;100.00;77300.97;5294874;28;20029;-81
2023/09/02 09:15:17;;;;;;;22.25;20.55;;;;;;;-145.79;100.00;77311.56;5287722;28;20108;-81
2023/09/02 09:17:49;;;;;;;29.65;27.25;;;;;;;-145.79;100.00;77305.22;5300495;28;20077;-79
2023/09/02 09:20:20;;;;;;;24.88;22.88;;;;;;;-145.79;100.00;77292.50;5305152;28;20479;-82
2023/09/02 09:22:52;;;;;;;24.27;22.23;;;;;;;-145.79;100.00;77292.50;5263994;28;20056;-77
2023/09/02 09:25:24;;;;;;;28.13;25.83;;;;;;;-145.79;100.00;77292.50;5270983;28;20418;-81
2023/09/02 09:28:09;;;;;;;29.00;26.70;;;;;;;-145.79;100.00;77284.00;5255870;28;20024;-81
2023/09/02 09:30:44;;;;;;;25.15;23.25;;;;;;;-145.79;100.00;77279.78;5246220;28;20025;-78
2023/09/02 09:33:19;;;;;;;32.35;23.95;;;;;;;-145.79;100.00;77277.66;5241825;28;20421;-77
2023/09/02 09:35:50;;;;;;;24.45;22.58;;;;;;;-145.79;100.00;77281.91;5240787;28;20029;-78
2023/09/02 09:38:22;;;;;;;23.58;21.77;;;;;;;-145.79;100.00;77284.00;5251464;28;20033;-80
2023/09/02 09:40:53;;;;;;;22.67;20.85;;;;;;;-145.79;100.00;77279.78;5260397;28;20041;-81
2023/09/02 09:43:27;;;;;;;24.83;22.50;;;;;;;-145.79;100.00;77279.78;5265839;28;20029;-80
2023/09/02 09:45:59;;;;;;;23.75;21.95;;;;;;;-145.79;100.00;77275.53;5261666;28;20049;-76
2023/09/02 09:48:31;;;;;;;26.95;24.85;;;;;;;-145.79;100.00;77275.53;5275179;28;20029;-76
2023/09/02 09:51:21;;;;;;;25.25;23.30;;;;;;;-145.79;100.00;77267.06;5263139;28;20037;-80
2023/09/02 09:53:53;;;;;;;26.35;24.35;;;;;;;-145.79;100.00;77262.81;5261660;28;20102;-77
2023/09/02 09:56:25;;;;;;;25.35;23.40;;;;;;;-145.79;100.00;77262.81;5259837;28;20032;-79
2023/09/02 09:59:07;;;;;;;63.65;58.30;;;;;;;-145.79;100.00;77247.97;5280506;28;20063;-81
2023/09/02 10:01:38;;;;;;;47.03;43.00;;;;;;;-145.79;100.00;77252.22;5269993;28;20033;-86
2023/09/02 10:04:09;;;;;;;27.33;25.23;;;;;;;-145.79;100.00;77254.34;5254280;28;20083;-79
2023/09/02 10:06:45;;;;;;;24.55;22.55;;;;;;;-145.79;100.00;77254.34;5242602;28;20045;-79
2023/09/02 10:09:19;;;;;;;27.00;24.45;;;;;;;-145.79;100.00;77241.63;5261728;28;20070;-85
2023/09/02 10:14:34;;;;;;;21.38;19.73;;;;;;;-145.79;100.00;77233.16;5334837;23;20105;-85
2023/09/02 10:24:16;;;;;;;25.25;22.85;;;;;;;-145.79;100.00;77228.91;5245756;28;20033;-78
2023/09/02 10:30:43;;;;;;;24.02;22.23;;;;;;;-145.79;100.00;77231.03;5200600;28;20090;-82
2023/09/02 10:33:34;;;;;;;23.92;22.13;;;;;;;-145.79;100.00;77233.16;5200161;28;20218;-80
2023/09/02 10:36:07;;;;;;;23.63;21.67;;;;;;;-145.79;100.00;77226.78;5200910;28;20101;-82
2023/09/02 10:38:42;;;;;;;23.08;21.38;;;;;;;-145.79;100.00;77222.53;5199191;28;20505;-81
2023/09/02 10:41:15;;;;;;;20.65;18.92;;;;;;;-145.79;100.00;77224.66;5200626;28;20050;-81
2023/09/02 10:43:46;;;;;;;20.13;18.63;;;;;;;-145.79;100.00;77224.66;5263224;28;20062;-77
2023/09/02 10:46:18;;;;;;;23.75;21.42;;;;;;;-145.79;100.00;77216.19;5282506;28;20446;-79
2023/09/02 10:48:50;;;;;;;24.40;22.27;;;;;;;-145.79;100.00;77199.22;5274916;28;20058;-72
2023/09/02 10:51:24;;;;;;;23.08;21.35;;;;;;;-145.79;100.00;77195.00;5282883;28;20033;-73
2023/09/02 10:53:57;;;;;;;23.85;21.95;;;;;;;-145.79;100.00;77186.50;5282524;28;20056;-74
2023/09/02 10:56:30;;;;;;;24.90;22.85;;;;;;;-145.79;100.00;77192.88;5282919;28;20051;-73
2023/09/02 10:59:06;;;;;;;30.73;27.98;;;;;;;-145.79;100.00;77195.00;5280890;28;20552;-74
2023/09/02 11:01:44;;;;;;;30.10;27.65;;;;;;;-145.79;99.93;77199.22;5282117;28;20039;-76
2023/09/02 11:04:40;;;;;;;27.27;25.02;;;;;;;-145.79;100.00;77188.63;5282798;28;20036;-76
2023/09/02 11:07:17;;;;;;;;;;;;;;;-145.79;100.00;77182.28;5273713;28;20029;-74
2023/09/02 11:09:51;;;;;;;24.33;22.23;;;;;;;-145.79;100.00;77197.09;5282826;28;20014;-77
2023/09/02 11:12:25;;;;;;;32.70;29.80;;;;;;;-145.79;100.00;77180.16;5281665;28;20053;-76
2023/09/02 11:15:08;;;;;;;28.48;26.08;;;;;;;-145.79;100.00;77190.75;5283181;28;20036;-77
2023/09/02 11:17:43;;;;;;;26.90;24.70;;;;;;;-145.79;100.00;77211.94;5281930;28;20029;-77
2023/09/02 11:20:19;;;;;;;25.67;23.43;;;;;;;-145.79;100.00;77211.94;5280022;28;20032;-77
2023/09/02 11:23:08;;;;;;;28.15;25.73;;;;;;;-145.79;100.00;77222.53;5280267;28;20302;-78
2023/09/02 11:25:41;;;;;;;28.48;25.98;;;;;;;-145.79;100.00;77237.38;5283089;28;20482;-78
2023/09/02 11:28:28;;;;;;;29.00;26.70;;;;;;;-145.79;100.00;77233.16;5331819;22;20048;-77
2023/09/02 11:31:12;;;;;;;27.38;25.00;;;;;;;-145.79;100.00;77252.22;5262722;28;20021;-79
2023/09/02 11:33:47;;;;;;;32.28;29.58;;;;;;;-145.79;100.00;77256.47;5262809;28;20033;-79
2023/09/02 11:36:19;;;;;;;35.05;32.03;;;;;;;-145.79;100.00;77250.09;5261582;28;20025;-80
2023/09/02 11:38:54;;;;;;;29.27;26.80;;;;;;;-145.79;100.00;77254.34;5263682;28;20047;-80
2023/09/02 11:41:29;;;;;;;35.83;32.70;;;;;;;-145.79;100.00;77258.56;5261038;28;20043;-73
2023/09/02 11:44:11;;;;;;;27.53;25.30;;;;;;;-145.79;100.00;77250.09;5261487;28;20024;-76
2023/09/02 11:46:43;;;;;;;25.35;23.30;;;;;;;-145.79;100.00;77245.84;5253037;28;20398;-76
2023/09/02 11:49:26;;;;;;;26.50;24.00;;;;;;;-145.79;100.00;77243.75;5260979;28;20487;-76
2023/09/02 11:51:58;;;;;;;26.67;24.35;;;;;;;-145.79;99.86;77241.63;5261805;28;20107;-79
2023/09/02 11:54:30;;;;;;;24.30;22.25;;;;;;;-145.79;99.96;77235.25;5251483;28;20027;-80
2023/09/02 12:03:27;;;;;;;25.02;22.92;;;;;;;-145.79;98.47;77222.53;5248271;28;20041;-76
2023/09/02 12:09:54;;;;;;;;;;;;;;;;;;;;;
2023/09/02 12:12:38;;;;;;;24.08;21.73;;;;;;;-145.79;98.13;77216.19;5208212;28;20041;-81
2023/09/02 12:15:12;;;;;;;25.63;23.42;;;;;;;-145.79;98.37;77233.16;5243246;28;20116;-79
2023/09/02 12:18:26;;;;;;;24.88;22.58;;;;;;;-145.79;98.59;77214.06;5263263;28;20032;-79
2023/09/02 12:22:10;;;;;;;;;;;;;;;;;;;;;
2023/09/02 12:25:35;;;;;;;;;;;;;;;;;;;;;
2023/09/02 12:28:35;;;;;;;26.55;24.17;;;;;;;-145.79;97.88;77220.44;5179171;28;20054;-81
2023/09/02 12:34:04;;;;;;;26.88;24.48;;;;;;;-145.79;97.30;77226.78;5222265;28;20034;-81
2023/09/02 12:36:35;;;;;;;25.67;23.48;;;;;;;-145.79;97.12;77220.44;5231086;28;20075;-82
2023/09/02 12:39:07;;;;;;;26.08;23.90;;;;;;;-145.79;96.80;77211.94;5241952;28;20017;-81
2023/09/02 12:41:39;;;;;;;26.08;23.88;;;;;;;-145.79;96.70;77207.72;5247638;28;20034;-81
2023/09/02 12:44:12;;;;;;;24.02;22.08;;;;;;;-145.79;96.13;77207.72;5248224;28;20021;-80
2023/09/02 12:46:43;;;;;;;23.00;21.08;;;;;;;-145.79;94.94;77233.16;5241929;28;20104;-75
2023/09/02 12:49:16;;;;;;;25.25;23.15;;;;;;;-145.79;94.55;77226.78;5240534;28;20100;-74
2023/09/02 12:51:50;;;;;;;26.48;24.17;;;;;;;-145.79;94.33;77241.63;5236482;28;20030;-82
2023/09/02 12:54:21;;;;;;;22.52;20.65;;;;;;;-145.79;94.05;77228.91;5244414;28;20092;-82
2023/09/02 12:56:53;;;;;;;26.13;23.73;;;;;;;-145.79;94.79;77245.84;5305591;22;20104;-82
2023/09/02 12:59:24;;;;;;;37.00;34.10;;;;;;;-145.79;94.58;77254.34;5263739;28;20060;-82
2023/09/02 13:01:55;;;;;;;24.75;22.75;;;;;;;-145.79;95.13;77243.75;5264277;28;20028;-82
2023/09/02 13:04:27;;;;;;;27.83;25.42;;;;;;;-145.79;95.07;77237.38;5264205;28;20464;-82
2023/09/02 13:06:58;;;;;;;21.70;19.83;;;;;;;-145.79;93.95;77233.16;5264714;28;20029;-84
2023/09/02 13:09:30;;;;;;;25.58;23.35;;;;;;;-145.79;93.63;77235.25;5265336;28;20028;-82
2023/09/02 13:12:02;;;;;;;22.08;20.17;;;;;;;-145.79;93.97;77224.66;5267100;28;20025;-78
2023/09/02 13:14:33;;;;;;;23.45;21.45;;;;;;;-145.79;93.24;77226.78;5265167;28;20105;-80
2023/09/02 13:17:05;;;;;;;20.73;19.00;;;;;;;-145.79;92.58;77237.38;5265410;28;20017;-81
2023/09/02 13:19:37;;;;;;;22.52;20.73;;;;;;;-145.79;92.42;77243.75;5264910;28;20132;-80
2023/09/02 13:22:09;;;;;;;23.02;21.20;;;;;;;-145.79;92.92;77247.97;5266072;28;20420;-80
2023/09/02 13:24:44;;;;;;;22.63;20.80;;;;;;;-145.79;93.38;77241.63;5265752;28;20056;-80
2023/09/02 13:27:19;;;;;;;21.38;19.55;;;;;;;-145.79;93.42;77241.63;5266208;28;20032;-79
2023/09/02 13:29:50;;;;;;;24.27;22.20;;;;;;;-145.79;93.62;77243.75;5263519;28;20021;-76
2023/09/02 13:32:24;;;;;;;24.80;22.67;;;;;;;-145.79;92.93;77267.06;5271223;28;20028;-79
2023/09/02 13:35:23;;;;;;;23.45;21.35;;;;;;;-145.79;93.32;77262.81;5276513;28;20104;-73
2023/09/02 13:37:58;;;;;;;18.92;17.27;;;;;;;-145.79;91.97;77250.09;5283192;28;20037;-79
2023/09/02 14:00:37;;;;;;;22.08;20.13;;;;;;;-145.79;91.35;77218.31;5217577;28;20549;-73
2023/09/02 14:03:25;;;;;;;19.85;18.10;;;;;;;-145.79;91.52;77218.31;5272889;28;20093;-77
2023/09/02 14:06:01;;;;;;;20.63;18.92;;;;;;;-145.79;89.01;77226.78;5300984;28;20024;-75
2023/09/02 14:08:37;;;;;;;19.83;17.95;;;;;;;-145.79;89.58;77216.19;5293236;28;20024;-76
2023/09/02 14:11:11;;;;;;;23.50;21.27;;;;;;;-145.79;90.43;77207.72;5286476;28;20025;-76
2023/09/02 14:13:43;;;;;;;21.75;19.85;;;;;;;-145.79;90.49;77182.28;5292404;28;20080;-76
2023/09/02 14:16:14;;;;;;;20.45;18.55;;;;;;;-145.79;88.89;77169.56;5291681;28;20108;-77
2023/09/02 14:18:47;;;;;;;20.48;18.67;;;;;;;-145.79;88.28;77158.97;5273273;28;20047;-77
2023/09/02 14:21:21;;;;;;;19.27;17.58;;;;;;;-145.79;88.34;77156.84;5282977;28;20474;-78
2023/09/02 14:24:12;;;;;;;19.23;17.42;;;;;;;-145.79;87.87;77150.47;5286960;22;20150;-77
2023/09/02 14:33:41;;;;;;;18.08;16.48;;;;;;;-145.79;87.46;77148.34;5271502;28;20036;-78
2023/09/02 14:36:45;;;;;;;18.80;17.20;;;;;;;-145.79;86.59;77152.59;5280935;28;20144;-79
2023/09/02 14:39:20;;;;;;;19.02;17.23;;;;;;;-145.79;87.02;77150.47;5360013;22;20121;-76
2023/09/02 14:41:51;;;;;;;19.75;17.88;;;;;;;-145.79;86.05;77163.19;5288561;28;20024;-73
2023/09/02 14:44:23;;;;;;;22.00;20.20;;;;;;;-145.79;86.94;77163.19;5281733;28;20022;-77
2023/09/02 14:46:55;;;;;;;23.67;21.60;;;;;;;-145.79;87.39;77154.72;5287034;28;20024;-79
2023/09/02 14:49:29;;;;;;;22.42;20.52;;;;;;;-145.79;88.05;77161.06;5285665;28;20055;-79
2023/09/02 14:52:02;;;;;;;21.20;19.27;;;;;;;-145.79;87.81;77148.34;5288335;28;20147;-79
2023/09/02 14:54:43;;;;;;;22.48;20.60;;;;;;;-145.79;88.66;77146.25;5291907;28;20028;-78
2023/09/02 14:57:16;;;;;;;22.00;20.15;;;;;;;-145.79;88.46;77156.84;5284949;28;20107;-80
2023/09/02 14:59:50;;;;;;;22.40;20.60;;;;;;;-145.79;88.34;77150.47;5282986;28;20020;-79
2023/09/02 15:02:30;;;;;;;22.52;20.55;;;;;;;-145.79;88.03;77131.41;5282920;28;20104;-80
2023/09/02 15:05:14;;;;;;;21.55;19.85;;;;;;;-145.79;87.63;77120.81;5284052;28;20103;-79
2023/09/02 15:07:46;;;;;;;23.08;21.10;;;;;;;-145.79;87.42;77129.28;5281026;28;20021;-85
2023/09/02 15:10:23;;;;;;;18.90;17.30;;;;;;;-145.79;86.22;77131.41;5283451;28;20021;-79
2023/09/02 15:12:55;;;;;;;19.83;18.13;;;;;;;-145.79;85.85;77129.28;5282396;28;20060;-80
2023/09/02 15:15:38;;;;;;;74.03;67.82;;;;;;;-145.79;85.00;77131.41;5286069;28;20024;-81
2023/09/02 15:18:25;;;;;;;25.70;23.52;;;;;;;-145.79;85.96;77127.16;5283038;28;20081;-81
2023/09/02 15:21:00;;;;;;;20.60;18.80;;;;;;;-145.79;85.80;77144.13;5282540;28;20031;-77
2023/09/02 15:23:33;;;;;;;20.20;18.52;;;;;;;-145.79;85.58;77156.84;5283854;28;20107;-81
2023/09/02 15:26:07;;;;;;;21.10;19.25;;;;;;;-145.79;85.89;77144.13;5284265;28;20017;-82
2023/09/02 15:28:40;;;;;;;19.67;18.07;;;;;;;-145.79;86.50;77137.75;5284010;28;20098;-83
2023/09/02 15:31:13;;;;;;;20.27;18.58;;;;;;;-145.79;86.54;77142.00;5283051;28;20637;-84
2023/09/02 15:33:44;;;;;;;27.00;24.42;;;;;;;-145.79;86.64;77146.25;5285425;28;20016;-82
2023/09/02 15:36:20;;;;;;;33.92;30.88;;;;;;;-145.79;87.85;77137.75;5285058;28;20497;-75
2023/09/02 15:38:52;;;;;;;26.60;24.30;;;;;;;-145.79;87.36;77139.88;5289423;28;20391;-75
2023/09/02 15:41:24;;;;;;;47.15;43.33;;;;;;;-145.79;87.44;77129.28;5300098;28;20035;-83
2023/09/02 15:43:55;;;;;;;21.63;19.88;;;;;;;-145.79;85.96;77137.75;5303268;28;20472;-84
2023/09/02 15:46:27;;;;;;;19.73;18.08;;;;;;;-145.79;86.02;77127.16;5298974;28;20042;-81
2023/09/02 15:49:00;;;;;;;18.20;16.63;;;;;;;-145.79;84.87;77135.66;5299153;28;20016;-78
2023/09/02 15:51:31;;;;;;;15.55;14.30;;;;;;;-145.79;84.20;77112.31;5302009;28;20031;-83
2023/09/02 15:54:03;;;;;;;16.70;15.30;;;;;;;-145.79;84.72;77131.41;5305406;28;20024;-82
2023/09/02 15:56:34;;;;;;;16.85;15.38;;;;;;;-145.79;83.85;77135.66;5304893;28;20458;-84
2023/09/02 15:59:05;;;;;;;18.00;16.40;;;;;;;-145.79;84.65;77127.16;5303735;28;20032;-82
2023/09/02 16:01:37;;;;;;;19.25;17.65;;;;;;;-145.79;85.69;77125.03;5296514;28;20023;-80
2023/09/02 16:04:08;;;;;;;17.98;16.45;;;;;;;-145.79;85.65;77122.94;5297678;28;20368;-79
2023/09/02 16:06:48;;;;;;;19.85;17.92;;;;;;;-145.79;85.58;77127.16;5305877;28;20096;-83
2023/09/02 16:09:20;;;;;;;29.52;27.00;;;;;;;-145.79;85.99;77125.03;5306076;28;20032;-81
2023/09/02 16:11:52;;;;;;;57.58;52.33;;;;;;;-145.79;86.21;77114.44;5311167;28;20509;-83
2023/09/02 16:14:24;;;;;;;37.17;34.05;;;;;;;-145.79;86.09;77114.44;5299831;28;20023;-82
2023/09/02 16:17:01;;;;;;;22.40;20.40;;;;;;;-145.79;86.75;77114.44;5303794;28;20099;-81
2023/09/02 16:19:32;;;;;;;20.92;19.20;;;;;;;-145.79;87.12;77105.97;5300902;28;20390;-81
2023/09/02 16:22:03;;;;;;;19.55;17.95;;;;;;;-145.79;86.36;77120.81;5299167;28;20024;-81
2023/09/02 16:24:37;;;;;;;19.63;17.88;;;;;;;-145.79;86.24;77118.69;5296939;28;20031;-81
2023/09/02 16:27:09;;;;;;;18.15;16.58;;;;;;;-145.79;85.35;77118.69;5297078;28;20513;-82
2023/09/02 16:29:44;;;;;;;19.90;18.00;;;;;;;-145.79;84.98;77112.31;5301441;28;20021;-77
2023/09/02 16:32:15;;;;;;;19.23;17.35;;;;;;;-145.79;86.11;77127.16;5288613;28;20037;-81
2023/09/02 16:34:46;;;;;;;17.23;15.70;;;;;;;-145.79;84.79;77142.00;5292373;28;20035;-78
2023/09/02 16:37:18;;;;;;;18.98;17.38;;;;;;;-145.79;85.16;77144.13;5311280;28;20039;-81
2023/09/02 16:39:57;;;;;;;16.73;15.32;;;;;;;-145.79;84.87;77129.28;5310537;28;20141;-81
2023/09/02 16:42:31;;;;;;;15.73;14.30;;;;;;;-145.79;85.22;77139.88;5309390;28;20031;-82
2023/09/02 16:45:05;;;;;;;17.35;15.85;;;;;;;-145.79;85.80;77156.84;5304631;28;20051;-81
2023/09/02 16:47:42;;;;;;;17.02;15.55;;;;;;;-145.79;86.35;77152.59;5309125;28;20032;-80
2023/09/02 16:50:15;;;;;;;17.70;16.02;;;;;;;-145.79;86.37;77144.13;5312736;28;20031;-82
2023/09/02 16:52:51;;;;;;;17.55;16.13;;;;;;;-145.79;86.55;77144.13;5305817;28;20433;-80
